sensor_id;sensor_type;location;lat;lon;timestamp;P1;durP1;ratioP1;P2;durP2;ratioP2
77012;SDS011;67260;53.130;17.982;2023-07-28T00:01:10;7.40;;;3.60;;
77012;SDS011;67260;53.130;17.982;2023-07-28T00:03:36;6.70;;;4.10;;
77012;SDS011;67260;53.130;17.982;2023-07-28T00:06:03;6.80;;;3.90;;
77012;SDS011;67260;53.130;17.982;2023-07-28T00:08:29;6.60;;;3.50;;
77012;SDS011;67260;53.130;17.982;2023-07-28T00:10:55;8.80;;;3.80;;
77012;SDS011;67260;53.130;17.982;2023-07-28T00:13:26;5.70;;;3.70;;
77012;SDS011;67260;53.130;17.982;2023-07-28T00:15:55;6.40;;;3.60;;
77012;SDS011;67260;53.130;17.982;2023-07-28T00:18:27;6.60;;;4.00;;
77012;SDS011;67260;53.130;17.982;2023-07-28T00:20:58;6.40;;;3.60;;
77012;SDS011;67260;53.130;17.982;2023-07-28T00:23:34;5.60;;;3.40;;
77012;SDS011;67260;53.130;17.982;2023-07-28T00:26:00;6.30;;;3.50;;
77012;SDS011;67260;53.130;17.982;2023-07-28T00:28:30;7.00;;;4.10;;
77012;SDS011;67260;53.130;17.982;2023-07-28T00:30:56;7.00;;;3.60;;
77012;SDS011;67260;53.130;17.982;2023-07-28T00:33:22;6.20;;;3.50;;
77012;SDS011;67260;53.130;17.982;2023-07-28T00:35:48;7.40;;;4.00;;
77012;SDS011;67260;53.130;17.982;2023-07-28T00:38:14;6.80;;;3.60;;
77012;SDS011;67260;53.130;17.982;2023-07-28T00:40:41;8.90;;;3.90;;
77012;SDS011;67260;53.130;17.982;2023-07-28T00:43:10;7.50;;;3.90;;
77012;SDS011;67260;53.130;17.982;2023-07-28T00:45:37;6.90;;;3.70;;
77012;SDS011;67260;53.130;17.982;2023-07-28T00:48:04;7.70;;;4.00;;
77012;SDS011;67260;53.130;17.982;2023-07-28T00:50:36;8.40;;;4.10;;
77012;SDS011;67260;53.130;17.982;2023-07-28T00:53:06;8.70;;;4.00;;
77012;SDS011;67260;53.130;17.982;2023-07-28T00:58:15;7.10;;;4.10;;
77012;SDS011;67260;53.130;17.982;2023-07-28T01:00:43;7.40;;;4.40;;
77012;SDS011;67260;53.130;17.982;2023-07-28T01:03:09;7.10;;;4.10;;
77012;SDS011;67260;53.130;17.982;2023-07-28T01:05:43;6.20;;;3.70;;
77012;SDS011;67260;53.130;17.982;2023-07-28T01:08:25;5.70;;;3.90;;
77012;SDS011;67260;53.130;17.982;2023-07-28T01:10:56;5.90;;;3.90;;
77012;SDS011;67260;53.130;17.982;2023-07-28T01:13:22;7.70;;;4.20;;
77012;SDS011;67260;53.130;17.982;2023-07-28T01:15:48;6.70;;;4.10;;
77012;SDS011;67260;53.130;17.982;2023-07-28T01:18:19;10.50;;;4.60;;
77012;SDS011;67260;53.130;17.982;2023-07-28T01:20:45;7.70;;;4.00;;
77012;SDS011;67260;53.130;17.982;2023-07-28T01:23:20;7.60;;;4.00;;
77012;SDS011;67260;53.130;17.982;2023-07-28T01:26:12;7.10;;;4.10;;
77012;SDS011;67260;53.130;17.982;2023-07-28T01:28:42;8.10;;;4.10;;
77012;SDS011;67260;53.130;17.982;2023-07-28T01:31:10;6.20;;;4.10;;
77012;SDS011;67260;53.130;17.982;2023-07-28T01:33:36;5.70;;;3.80;;
77012;SDS011;67260;53.130;17.982;2023-07-28T01:36:03;7.10;;;4.40;;
77012;SDS011;67260;53.130;17.982;2023-07-28T01:38:30;6.20;;;3.80;;
77012;SDS011;67260;53.130;17.982;2023-07-28T01:43:37;6.00;;;3.70;;
77012;SDS011;67260;53.130;17.982;2023-07-28T01:46:03;7.00;;;4.40;;
77012;SDS011;67260;53.130;17.982;2023-07-28T01:48:30;6.20;;;4.20;;
77012;SDS011;67260;53.130;17.982;2023-07-28T01:50:56;6.70;;;4.10;;
77012;SDS011;67260;53.130;17.982;2023-07-28T01:53:25;6.90;;;4.30;;
77012;SDS011;67260;53.130;17.982;2023-07-28T01:55:55;7.20;;;4.40;;
77012;SDS011;67260;53.130;17.982;2023-07-28T01:58:27;7.50;;;4.20;;
77012;SDS011;67260;53.130;17.982;2023-07-28T02:00:53;9.00;;;4.70;;
77012;SDS011;67260;53.130;17.982;2023-07-28T02:03:23;6.50;;;4.00;;
77012;SDS011;67260;53.130;17.982;2023-07-28T02:05:50;6.30;;;3.80;;
77012;SDS011;67260;53.130;17.982;2023-07-28T02:08:18;6.80;;;4.00;;
77012;SDS011;67260;53.130;17.982;2023-07-28T02:10:44;7.60;;;3.90;;
77012;SDS011;67260;53.130;17.982;2023-07-28T02:13:14;6.40;;;4.40;;
77012;SDS011;67260;53.130;17.982;2023-07-28T02:15:45;8.40;;;4.20;;
77012;SDS011;67260;53.130;17.982;2023-07-28T02:18:14;6.90;;;4.10;;
77012;SDS011;67260;53.130;17.982;2023-07-28T02:20:44;7.40;;;4.20;;
77012;SDS011;67260;53.130;17.982;2023-07-28T02:23:14;6.90;;;4.60;;
77012;SDS011;67260;53.130;17.982;2023-07-28T02:25:40;9.50;;;5.10;;
77012;SDS011;67260;53.130;17.982;2023-07-28T02:28:08;7.40;;;4.10;;
77012;SDS011;67260;53.130;17.982;2023-07-28T02:30:35;7.50;;;4.50;;
77012;SDS011;67260;53.130;17.982;2023-07-28T02:33:05;7.60;;;4.60;;
77012;SDS011;67260;53.130;17.982;2023-07-28T02:35:32;9.70;;;5.20;;
77012;SDS011;67260;53.130;17.982;2023-07-28T02:38:01;8.70;;;5.00;;
77012;SDS011;67260;53.130;17.982;2023-07-28T02:40:28;8.50;;;5.00;;
77012;SDS011;67260;53.130;17.982;2023-07-28T02:42:54;7.90;;;4.90;;
77012;SDS011;67260;53.130;17.982;2023-07-28T02:45:20;7.80;;;4.90;;
77012;SDS011;67260;53.130;17.982;2023-07-28T02:48:06;7.90;;;4.90;;
77012;SDS011;67260;53.130;17.982;2023-07-28T02:50:34;6.30;;;4.60;;
77012;SDS011;67260;53.130;17.982;2023-07-28T02:53:03;7.40;;;4.70;;
77012;SDS011;67260;53.130;17.982;2023-07-28T02:55:40;7.00;;;4.60;;
77012;SDS011;67260;53.130;17.982;2023-07-28T02:58:10;6.60;;;4.40;;
77012;SDS011;67260;53.130;17.982;2023-07-28T03:00:37;9.00;;;5.00;;
77012;SDS011;67260;53.130;17.982;2023-07-28T03:03:08;7.00;;;5.20;;
77012;SDS011;67260;53.130;17.982;2023-07-28T03:05:39;7.30;;;4.80;;
77012;SDS011;67260;53.130;17.982;2023-07-28T03:08:17;7.30;;;4.20;;
77012;SDS011;67260;53.130;17.982;2023-07-28T03:10:43;6.80;;;4.40;;
77012;SDS011;67260;53.130;17.982;2023-07-28T03:13:09;8.90;;;5.10;;
77012;SDS011;67260;53.130;17.982;2023-07-28T03:15:38;6.60;;;4.80;;
77012;SDS011;67260;53.130;17.982;2023-07-28T03:18:05;7.20;;;5.00;;
77012;SDS011;67260;53.130;17.982;2023-07-28T03:20:31;8.60;;;4.90;;
77012;SDS011;67260;53.130;17.982;2023-07-28T03:22:57;7.20;;;4.70;;
77012;SDS011;67260;53.130;17.982;2023-07-28T03:25:23;6.90;;;5.10;;
77012;SDS011;67260;53.130;17.982;2023-07-28T03:27:53;8.60;;;4.90;;
77012;SDS011;67260;53.130;17.982;2023-07-28T03:30:20;7.00;;;4.00;;
77012;SDS011;67260;53.130;17.982;2023-07-28T03:32:46;7.00;;;4.90;;
77012;SDS011;67260;53.130;17.982;2023-07-28T03:35:12;8.60;;;5.00;;
77012;SDS011;67260;53.130;17.982;2023-07-28T03:37:42;8.80;;;4.40;;
77012;SDS011;67260;53.130;17.982;2023-07-28T03:40:08;7.70;;;4.80;;
77012;SDS011;67260;53.130;17.982;2023-07-28T03:42:42;8.90;;;5.00;;
77012;SDS011;67260;53.130;17.982;2023-07-28T03:45:09;7.50;;;4.50;;
77012;SDS011;67260;53.130;17.982;2023-07-28T03:47:35;8.90;;;5.10;;
77012;SDS011;67260;53.130;17.982;2023-07-28T03:50:02;8.70;;;4.60;;
77012;SDS011;67260;53.130;17.982;2023-07-28T03:52:29;6.90;;;5.10;;
77012;SDS011;67260;53.130;17.982;2023-07-28T03:54:55;7.60;;;4.90;;
77012;SDS011;67260;53.130;17.982;2023-07-28T03:57:21;7.40;;;4.20;;
77012;SDS011;67260;53.130;17.982;2023-07-28T03:59:47;9.70;;;4.90;;
77012;SDS011;67260;53.130;17.982;2023-07-28T04:02:13;7.70;;;4.90;;
77012;SDS011;67260;53.130;17.982;2023-07-28T04:04:39;8.10;;;5.00;;
77012;SDS011;67260;53.130;17.982;2023-07-28T04:07:05;7.20;;;5.10;;
77012;SDS011;67260;53.130;17.982;2023-07-28T04:11:57;7.40;;;4.40;;
77012;SDS011;67260;53.130;17.982;2023-07-28T04:14:23;7.50;;;4.30;;
77012;SDS011;67260;53.130;17.982;2023-07-28T04:16:49;6.30;;;4.30;;
77012;SDS011;67260;53.130;17.982;2023-07-28T04:21:41;6.00;;;3.70;;
77012;SDS011;67260;53.130;17.982;2023-07-28T04:24:07;6.80;;;3.90;;
77012;SDS011;67260;53.130;17.982;2023-07-28T04:26:36;6.50;;;3.90;;
77012;SDS011;67260;53.130;17.982;2023-07-28T04:29:04;5.60;;;4.00;;
77012;SDS011;67260;53.130;17.982;2023-07-28T04:31:30;6.90;;;3.90;;
77012;SDS011;67260;53.130;17.982;2023-07-28T04:34:04;6.30;;;3.90;;
77012;SDS011;67260;53.130;17.982;2023-07-28T04:36:49;6.10;;;3.80;;
77012;SDS011;67260;53.130;17.982;2023-07-28T04:39:16;8.00;;;3.80;;
77012;SDS011;67260;53.130;17.982;2023-07-28T04:41:42;5.80;;;3.30;;
77012;SDS011;67260;53.130;17.982;2023-07-28T04:44:08;6.90;;;3.80;;
77012;SDS011;67260;53.130;17.982;2023-07-28T04:46:37;7.90;;;3.60;;
77012;SDS011;67260;53.130;17.982;2023-07-28T04:49:04;6.30;;;3.50;;
77012;SDS011;67260;53.130;17.982;2023-07-28T04:51:49;6.50;;;3.40;;
77012;SDS011;67260;53.130;17.982;2023-07-28T04:54:38;7.10;;;3.40;;
77012;SDS011;67260;53.130;17.982;2023-07-28T04:57:04;6.90;;;4.50;;
77012;SDS011;67260;53.130;17.982;2023-07-28T04:59:33;6.20;;;3.60;;
77012;SDS011;67260;53.130;17.982;2023-07-28T05:01:59;7.30;;;3.90;;
77012;SDS011;67260;53.130;17.982;2023-07-28T05:04:26;6.70;;;3.40;;
77012;SDS011;67260;53.130;17.982;2023-07-28T05:06:52;8.50;;;3.60;;
77012;SDS011;67260;53.130;17.982;2023-07-28T05:09:18;7.10;;;3.70;;
77012;SDS011;67260;53.130;17.982;2023-07-28T05:11:44;7.20;;;3.50;;
77012;SDS011;67260;53.130;17.982;2023-07-28T05:14:10;6.50;;;3.40;;
77012;SDS011;67260;53.130;17.982;2023-07-28T05:19:08;6.60;;;3.80;;
77012;SDS011;67260;53.130;17.982;2023-07-28T05:21:40;5.90;;;3.50;;
77012;SDS011;67260;53.130;17.982;2023-07-28T05:26:33;7.60;;;4.30;;
77012;SDS011;67260;53.130;17.982;2023-07-28T05:28:59;5.40;;;3.50;;
77012;SDS011;67260;53.130;17.982;2023-07-28T05:31:27;6.00;;;3.30;;
77012;SDS011;67260;53.130;17.982;2023-07-28T05:33:53;7.50;;;4.10;;
77012;SDS011;67260;53.130;17.982;2023-07-28T05:36:20;7.80;;;4.00;;
77012;SDS011;67260;53.130;17.982;2023-07-28T05:38:46;7.10;;;4.00;;
77012;SDS011;67260;53.130;17.982;2023-07-28T05:41:12;7.80;;;4.40;;
77012;SDS011;67260;53.130;17.982;2023-07-28T05:43:38;7.60;;;4.10;;
77012;SDS011;67260;53.130;17.982;2023-07-28T05:46:04;6.60;;;4.30;;
77012;SDS011;67260;53.130;17.982;2023-07-28T05:48:33;8.20;;;3.80;;
77012;SDS011;67260;53.130;17.982;2023-07-28T05:50:59;7.90;;;4.30;;
77012;SDS011;67260;53.130;17.982;2023-07-28T05:53:25;8.90;;;5.10;;
77012;SDS011;67260;53.130;17.982;2023-07-28T05:55:54;9.40;;;4.90;;
77012;SDS011;67260;53.130;17.982;2023-07-28T05:58:21;7.60;;;4.20;;
77012;SDS011;67260;53.130;17.982;2023-07-28T06:00:47;9.20;;;4.70;;
77012;SDS011;67260;53.130;17.982;2023-07-28T06:03:25;9.00;;;5.10;;
77012;SDS011;67260;53.130;17.982;2023-07-28T06:05:55;8.30;;;5.20;;
77012;SDS011;67260;53.130;17.982;2023-07-28T06:08:21;8.80;;;5.90;;
77012;SDS011;67260;53.130;17.982;2023-07-28T06:10:47;8.90;;;5.60;;
77012;SDS011;67260;53.130;17.982;2023-07-28T06:13:13;10.40;;;5.10;;
77012;SDS011;67260;53.130;17.982;2023-07-28T06:18:06;10.00;;;6.20;;
77012;SDS011;67260;53.130;17.982;2023-07-28T06:23:00;9.30;;;5.50;;
77012;SDS011;67260;53.130;17.982;2023-07-28T06:25:26;7.50;;;5.10;;
77012;SDS011;67260;53.130;17.982;2023-07-28T06:27:53;9.40;;;5.50;;
77012;SDS011;67260;53.130;17.982;2023-07-28T06:30:19;9.70;;;5.60;;
77012;SDS011;67260;53.130;17.982;2023-07-28T06:32:45;7.80;;;5.20;;
77012;SDS011;67260;53.130;17.982;2023-07-28T06:35:11;8.90;;;5.90;;
77012;SDS011;67260;53.130;17.982;2023-07-28T06:37:37;10.20;;;5.50;;
77012;SDS011;67260;53.130;17.982;2023-07-28T06:42:32;10.30;;;6.50;;
77012;SDS011;67260;53.130;17.982;2023-07-28T06:45:01;9.70;;;5.80;;
77012;SDS011;67260;53.130;17.982;2023-07-28T06:47:28;8.90;;;5.30;;
77012;SDS011;67260;53.130;17.982;2023-07-28T06:52:20;9.20;;;5.40;;
77012;SDS011;67260;53.130;17.982;2023-07-28T06:57:15;8.60;;;5.10;;
77012;SDS011;67260;53.130;17.982;2023-07-28T06:59:41;8.10;;;4.80;;
77012;SDS011;67260;53.130;17.982;2023-07-28T07:02:08;8.00;;;5.30;;
77012;SDS011;67260;53.130;17.982;2023-07-28T07:04:35;7.90;;;4.80;;
77012;SDS011;67260;53.130;17.982;2023-07-28T07:07:01;4.80;;;3.10;;
77012;SDS011;67260;53.130;17.982;2023-07-28T07:09:28;6.30;;;4.10;;
77012;SDS011;67260;53.130;17.982;2023-07-28T07:11:54;7.10;;;4.70;;
77012;SDS011;67260;53.130;17.982;2023-07-28T07:16:46;7.20;;;4.00;;
77012;SDS011;67260;53.130;17.982;2023-07-28T07:19:12;5.70;;;3.90;;
77012;SDS011;67260;53.130;17.982;2023-07-28T07:21:39;5.40;;;3.40;;
77012;SDS011;67260;53.130;17.982;2023-07-28T07:24:05;5.60;;;3.80;;
77012;SDS011;67260;53.130;17.982;2023-07-28T07:26:31;5.20;;;3.10;;
77012;SDS011;67260;53.130;17.982;2023-07-28T07:28:57;6.00;;;3.50;;
77012;SDS011;67260;53.130;17.982;2023-07-28T07:31:23;6.50;;;2.90;;
77012;SDS011;67260;53.130;17.982;2023-07-28T07:33:49;4.20;;;2.90;;
77012;SDS011;67260;53.130;17.982;2023-07-28T07:36:16;4.90;;;3.00;;
77012;SDS011;67260;53.130;17.982;2023-07-28T07:38:44;6.40;;;2.80;;
77012;SDS011;67260;53.130;17.982;2023-07-28T07:41:14;5.20;;;2.90;;
77012;SDS011;67260;53.130;17.982;2023-07-28T07:43:47;4.40;;;2.60;;
77012;SDS011;67260;53.130;17.982;2023-07-28T07:46:14;4.80;;;2.80;;
77012;SDS011;67260;53.130;17.982;2023-07-28T07:48:40;3.90;;;2.50;;
77012;SDS011;67260;53.130;17.982;2023-07-28T07:51:07;3.30;;;2.20;;
77012;SDS011;67260;53.130;17.982;2023-07-28T07:53:34;4.90;;;2.50;;
77012;SDS011;67260;53.130;17.982;2023-07-28T07:56:09;4.40;;;2.70;;
77012;SDS011;67260;53.130;17.982;2023-07-28T07:58:35;5.10;;;3.00;;
77012;SDS011;67260;53.130;17.982;2023-07-28T08:01:02;5.50;;;3.50;;
77012;SDS011;67260;53.130;17.982;2023-07-28T08:03:28;4.50;;;3.20;;
77012;SDS011;67260;53.130;17.982;2023-07-28T08:05:54;4.90;;;3.30;;
77012;SDS011;67260;53.130;17.982;2023-07-28T08:08:22;5.10;;;3.40;;
77012;SDS011;67260;53.130;17.982;2023-07-28T08:10:49;6.40;;;3.60;;
77012;SDS011;67260;53.130;17.982;2023-07-28T08:13:18;6.00;;;3.60;;
77012;SDS011;67260;53.130;17.982;2023-07-28T08:15:45;5.60;;;3.40;;
77012;SDS011;67260;53.130;17.982;2023-07-28T08:18:12;5.90;;;3.60;;
77012;SDS011;67260;53.130;17.982;2023-07-28T08:20:39;6.30;;;3.60;;
77012;SDS011;67260;53.130;17.982;2023-07-28T08:23:05;5.60;;;3.70;;
77012;SDS011;67260;53.130;17.982;2023-07-28T08:25:32;5.60;;;4.00;;
77012;SDS011;67260;53.130;17.982;2023-07-28T08:28:00;6.40;;;4.30;;
77012;SDS011;67260;53.130;17.982;2023-07-28T08:30:28;6.00;;;4.00;;
77012;SDS011;67260;53.130;17.982;2023-07-28T08:32:57;7.20;;;4.10;;
77012;SDS011;67260;53.130;17.982;2023-07-28T08:35:28;6.80;;;4.80;;
77012;SDS011;67260;53.130;17.982;2023-07-28T08:38:03;7.00;;;4.70;;
77012;SDS011;67260;53.130;17.982;2023-07-28T08:40:29;5.90;;;4.30;;
77012;SDS011;67260;53.130;17.982;2023-07-28T08:42:55;7.70;;;5.10;;
77012;SDS011;67260;53.130;17.982;2023-07-28T08:45:21;6.70;;;4.40;;
77012;SDS011;67260;53.130;17.982;2023-07-28T08:47:52;6.90;;;4.60;;
77012;SDS011;67260;53.130;17.982;2023-07-28T08:50:29;6.90;;;4.70;;
77012;SDS011;67260;53.130;17.982;2023-07-28T08:52:59;6.40;;;4.70;;
77012;SDS011;67260;53.130;17.982;2023-07-28T08:55:25;7.10;;;5.00;;
77012;SDS011;67260;53.130;17.982;2023-07-28T08:57:51;6.30;;;4.70;;
77012;SDS011;67260;53.130;17.982;2023-07-28T09:00:20;7.80;;;5.00;;
77012;SDS011;67260;53.130;17.982;2023-07-28T09:02:48;6.20;;;4.40;;
77012;SDS011;67260;53.130;17.982;2023-07-28T09:05:19;6.80;;;4.60;;
77012;SDS011;67260;53.130;17.982;2023-07-28T09:07:46;7.00;;;4.90;;
77012;SDS011;67260;53.130;17.982;2023-07-28T09:10:18;7.70;;;4.50;;
77012;SDS011;67260;53.130;17.982;2023-07-28T09:12:47;6.70;;;4.60;;
77012;SDS011;67260;53.130;17.982;2023-07-28T09:15:18;7.40;;;4.90;;
77012;SDS011;67260;53.130;17.982;2023-07-28T09:17:44;7.20;;;4.80;;
77012;SDS011;67260;53.130;17.982;2023-07-28T09:20:14;6.90;;;4.60;;
77012;SDS011;67260;53.130;17.982;2023-07-28T09:22:42;6.00;;;4.60;;
77012;SDS011;67260;53.130;17.982;2023-07-28T09:25:15;6.40;;;3.90;;
77012;SDS011;67260;53.130;17.982;2023-07-28T09:27:51;5.90;;;4.40;;
77012;SDS011;67260;53.130;17.982;2023-07-28T09:30:19;7.00;;;4.30;;
77012;SDS011;67260;53.130;17.982;2023-07-28T09:32:49;6.20;;;4.40;;
77012;SDS011;67260;53.130;17.982;2023-07-28T09:35:16;5.70;;;4.60;;
77012;SDS011;67260;53.130;17.982;2023-07-28T09:37:44;7.40;;;4.30;;
77012;SDS011;67260;53.130;17.982;2023-07-28T09:40:14;5.70;;;4.20;;
77012;SDS011;67260;53.130;17.982;2023-07-28T09:42:42;5.60;;;4.20;;
77012;SDS011;67260;53.130;17.982;2023-07-28T09:45:15;6.10;;;4.10;;
77012;SDS011;67260;53.130;17.982;2023-07-28T09:47:47;5.60;;;3.90;;
77012;SDS011;67260;53.130;17.982;2023-07-28T09:50:16;4.90;;;3.60;;
77012;SDS011;67260;53.130;17.982;2023-07-28T09:52:47;4.70;;;3.60;;
77012;SDS011;67260;53.130;17.982;2023-07-28T09:55:19;4.80;;;3.10;;
77012;SDS011;67260;53.130;17.982;2023-07-28T09:57:51;5.50;;;3.30;;
77012;SDS011;67260;53.130;17.982;2023-07-28T10:00:22;4.40;;;3.20;;
77012;SDS011;67260;53.130;17.982;2023-07-28T10:02:52;5.30;;;3.70;;
77012;SDS011;67260;53.130;17.982;2023-07-28T10:07:58;5.20;;;3.80;;
77012;SDS011;67260;53.130;17.982;2023-07-28T10:10:25;4.30;;;3.30;;
77012;SDS011;67260;53.130;17.982;2023-07-28T10:13:18;5.30;;;3.30;;
77012;SDS011;67260;53.130;17.982;2023-07-28T10:15:59;4.90;;;3.80;;
77012;SDS011;67260;53.130;17.982;2023-07-28T10:18:28;4.50;;;3.00;;
77012;SDS011;67260;53.130;17.982;2023-07-28T10:20:57;4.60;;;3.00;;
77012;SDS011;67260;53.130;17.982;2023-07-28T10:23:35;4.70;;;3.10;;
77012;SDS011;67260;53.130;17.982;2023-07-28T10:26:10;4.50;;;3.30;;
77012;SDS011;67260;53.130;17.982;2023-07-28T10:28:41;4.10;;;3.00;;
77012;SDS011;67260;53.130;17.982;2023-07-28T10:31:08;4.10;;;2.60;;
77012;SDS011;67260;53.130;17.982;2023-07-28T10:33:37;3.60;;;2.60;;
77012;SDS011;67260;53.130;17.982;2023-07-28T10:36:13;3.90;;;2.60;;
77012;SDS011;67260;53.130;17.982;2023-07-28T10:38:42;3.60;;;2.50;;
77012;SDS011;67260;53.130;17.982;2023-07-28T10:41:12;3.60;;;2.90;;
77012;SDS011;67260;53.130;17.982;2023-07-28T10:43:45;5.30;;;2.80;;
77012;SDS011;67260;53.130;17.982;2023-07-28T10:46:20;4.30;;;3.30;;
77012;SDS011;67260;53.130;17.982;2023-07-28T10:48:48;4.20;;;2.70;;
77012;SDS011;67260;53.130;17.982;2023-07-28T10:51:22;3.80;;;2.60;;
77012;SDS011;67260;53.130;17.982;2023-07-28T10:53:55;4.30;;;2.70;;
77012;SDS011;67260;53.130;17.982;2023-07-28T10:56:34;3.70;;;2.40;;
77012;SDS011;67260;53.130;17.982;2023-07-28T10:59:04;4.10;;;2.50;;
77012;SDS011;67260;53.130;17.982;2023-07-28T11:01:35;4.50;;;2.50;;
77012;SDS011;67260;53.130;17.982;2023-07-28T11:06:34;4.00;;;2.80;;
77012;SDS011;67260;53.130;17.982;2023-07-28T11:09:00;4.00;;;2.90;;
77012;SDS011;67260;53.130;17.982;2023-07-28T11:11:34;4.20;;;2.90;;
77012;SDS011;67260;53.130;17.982;2023-07-28T11:14:05;4.20;;;2.60;;
77012;SDS011;67260;53.130;17.982;2023-07-28T11:16:38;3.90;;;2.70;;
77012;SDS011;67260;53.130;17.982;2023-07-28T11:19:47;3.30;;;2.30;;
77012;SDS011;67260;53.130;17.982;2023-07-28T11:22:16;3.50;;;2.30;;
77012;SDS011;67260;53.130;17.982;2023-07-28T11:24:43;4.10;;;2.20;;
77012;SDS011;67260;53.130;17.982;2023-07-28T11:27:11;4.30;;;2.30;;
77012;SDS011;67260;53.130;17.982;2023-07-28T11:29:47;3.70;;;2.30;;
77012;SDS011;67260;53.130;17.982;2023-07-28T11:32:15;4.40;;;2.30;;
77012;SDS011;67260;53.130;17.982;2023-07-28T11:34:42;3.40;;;2.30;;
77012;SDS011;67260;53.130;17.982;2023-07-28T11:37:10;3.60;;;2.10;;
77012;SDS011;67260;53.130;17.982;2023-07-28T11:39:38;4.20;;;2.30;;
77012;SDS011;67260;53.130;17.982;2023-07-28T11:42:05;3.60;;;2.20;;
77012;SDS011;67260;53.130;17.982;2023-07-28T11:44:31;4.20;;;2.30;;
77012;SDS011;67260;53.130;17.982;2023-07-28T11:47:05;2.90;;;2.20;;
77012;SDS011;67260;53.130;17.982;2023-07-28T11:49:35;3.40;;;2.50;;
77012;SDS011;67260;53.130;17.982;2023-07-28T11:52:34;3.10;;;2.30;;
77012;SDS011;67260;53.130;17.982;2023-07-28T11:55:05;3.50;;;2.30;;
77012;SDS011;67260;53.130;17.982;2023-07-28T11:57:35;5.50;;;2.90;;
77012;SDS011;67260;53.130;17.982;2023-07-28T12:00:01;4.60;;;2.40;;
77012;SDS011;67260;53.130;17.982;2023-07-28T12:02:31;4.00;;;2.70;;
77012;SDS011;67260;53.130;17.982;2023-07-28T12:04:59;4.30;;;2.80;;
77012;SDS011;67260;53.130;17.982;2023-07-28T12:07:29;6.90;;;3.50;;
77012;SDS011;67260;53.130;17.982;2023-07-28T12:10:06;3.70;;;2.80;;
77012;SDS011;67260;53.130;17.982;2023-07-28T12:12:43;4.20;;;2.90;;
77012;SDS011;67260;53.130;17.982;2023-07-28T12:20:36;4.40;;;2.70;;
77012;SDS011;67260;53.130;17.982;2023-07-28T12:23:08;3.50;;;2.50;;
77012;SDS011;67260;53.130;17.982;2023-07-28T12:25:43;3.20;;;2.30;;
77012;SDS011;67260;53.130;17.982;2023-07-28T12:28:10;3.80;;;2.50;;
77012;SDS011;67260;53.130;17.982;2023-07-28T12:30:36;6.00;;;3.00;;
77012;SDS011;67260;53.130;17.982;2023-07-28T12:33:06;4.80;;;2.80;;
77012;SDS011;67260;53.130;17.982;2023-07-28T12:35:34;5.60;;;2.90;;
77012;SDS011;67260;53.130;17.982;2023-07-28T12:38:04;3.30;;;2.40;;
77012;SDS011;67260;53.130;17.982;2023-07-28T12:40:34;3.90;;;2.80;;
77012;SDS011;67260;53.130;17.982;2023-07-28T12:43:04;3.60;;;2.90;;
77012;SDS011;67260;53.130;17.982;2023-07-28T12:45:30;3.60;;;2.90;;
77012;SDS011;67260;53.130;17.982;2023-07-28T12:47:57;4.20;;;2.70;;
77012;SDS011;67260;53.130;17.982;2023-07-28T12:50:25;4.50;;;2.70;;
77012;SDS011;67260;53.130;17.982;2023-07-28T12:53:01;3.50;;;2.50;;
77012;SDS011;67260;53.130;17.982;2023-07-28T12:55:30;3.70;;;2.60;;
77012;SDS011;67260;53.130;17.982;2023-07-28T12:57:57;4.40;;;2.30;;
77012;SDS011;67260;53.130;17.982;2023-07-28T13:00:26;3.40;;;2.20;;
77012;SDS011;67260;53.130;17.982;2023-07-28T13:05:23;3.20;;;1.70;;
77012;SDS011;67260;53.130;17.982;2023-07-28T13:07:50;3.00;;;1.80;;
77012;SDS011;67260;53.130;17.982;2023-07-28T13:10:16;2.70;;;1.80;;
77012;SDS011;67260;53.130;17.982;2023-07-28T13:12:42;3.00;;;1.80;;
77012;SDS011;67260;53.130;17.982;2023-07-28T13:15:09;3.10;;;2.00;;
77012;SDS011;67260;53.130;17.982;2023-07-28T13:17:39;2.80;;;1.90;;
77012;SDS011;67260;53.130;17.982;2023-07-28T13:22:32;3.40;;;1.80;;
77012;SDS011;67260;53.130;17.982;2023-07-28T13:24:58;3.50;;;2.00;;
77012;SDS011;67260;53.130;17.982;2023-07-28T13:27:24;4.10;;;2.00;;
77012;SDS011;67260;53.130;17.982;2023-07-28T13:29:50;5.50;;;2.10;;
77012;SDS011;67260;53.130;17.982;2023-07-28T13:32:23;3.60;;;2.10;;
77012;SDS011;67260;53.130;17.982;2023-07-28T13:34:51;3.50;;;2.00;;
77012;SDS011;67260;53.130;17.982;2023-07-28T13:39:59;3.20;;;1.80;;
77012;SDS011;67260;53.130;17.982;2023-07-28T13:42:26;4.60;;;1.80;;
77012;SDS011;67260;53.130;17.982;2023-07-28T13:44:53;2.80;;;1.70;;
77012;SDS011;67260;53.130;17.982;2023-07-28T13:47:20;3.60;;;1.90;;
77012;SDS011;67260;53.130;17.982;2023-07-28T13:49:46;3.30;;;1.90;;
77012;SDS011;67260;53.130;17.982;2023-07-28T13:52:13;2.80;;;1.70;;
77012;SDS011;67260;53.130;17.982;2023-07-28T13:54:39;4.50;;;1.80;;
77012;SDS011;67260;53.130;17.982;2023-07-28T13:57:07;3.00;;;1.90;;
77012;SDS011;67260;53.130;17.982;2023-07-28T13:59:34;3.10;;;1.80;;
77012;SDS011;67260;53.130;17.982;2023-07-28T14:02:04;3.00;;;1.70;;
77012;SDS011;67260;53.130;17.982;2023-07-28T14:04:30;3.50;;;1.50;;
77012;SDS011;67260;53.130;17.982;2023-07-28T14:06:58;3.00;;;1.80;;
77012;SDS011;67260;53.130;17.982;2023-07-28T14:09:25;2.80;;;1.80;;
77012;SDS011;67260;53.130;17.982;2023-07-28T14:11:52;2.30;;;1.50;;
77012;SDS011;67260;53.130;17.982;2023-07-28T14:14:19;3.00;;;1.50;;
77012;SDS011;67260;53.130;17.982;2023-07-28T14:16:45;2.10;;;1.30;;
77012;SDS011;67260;53.130;17.982;2023-07-28T14:19:12;3.00;;;1.50;;
77012;SDS011;67260;53.130;17.982;2023-07-28T14:21:39;2.70;;;1.30;;
77012;SDS011;67260;53.130;17.982;2023-07-28T14:24:06;5.30;;;1.40;;
77012;SDS011;67260;53.130;17.982;2023-07-28T14:26:33;2.00;;;1.20;;
77012;SDS011;67260;53.130;17.982;2023-07-28T14:29:00;2.60;;;1.20;;
77012;SDS011;67260;53.130;17.982;2023-07-28T14:31:27;1.90;;;1.30;;
77012;SDS011;67260;53.130;17.982;2023-07-28T14:33:54;2.70;;;1.20;;
77012;SDS011;67260;53.130;17.982;2023-07-28T14:36:21;2.20;;;1.20;;
77012;SDS011;67260;53.130;17.982;2023-07-28T14:38:48;2.50;;;1.40;;
77012;SDS011;67260;53.130;17.982;2023-07-28T14:41:15;1.70;;;1.10;;
77012;SDS011;67260;53.130;17.982;2023-07-28T14:43:42;2.60;;;1.10;;
77012;SDS011;67260;53.130;17.982;2023-07-28T14:46:09;3.00;;;1.20;;
77012;SDS011;67260;53.130;17.982;2023-07-28T14:48:38;2.50;;;1.00;;
77012;SDS011;67260;53.130;17.982;2023-07-28T14:51:05;2.00;;;1.10;;
77012;SDS011;67260;53.130;17.982;2023-07-28T14:53:33;2.30;;;1.10;;
77012;SDS011;67260;53.130;17.982;2023-07-28T14:56:02;2.70;;;1.20;;
77012;SDS011;67260;53.130;17.982;2023-07-28T14:58:40;1.70;;;1.10;;
77012;SDS011;67260;53.130;17.982;2023-07-28T15:01:11;1.40;;;1.00;;
77012;SDS011;67260;53.130;17.982;2023-07-28T15:03:39;1.70;;;1.00;;
77012;SDS011;67260;53.130;17.982;2023-07-28T15:06:16;2.10;;;1.30;;
77012;SDS011;67260;53.130;17.982;2023-07-28T15:08:43;2.00;;;1.20;;
77012;SDS011;67260;53.130;17.982;2023-07-28T15:11:13;2.50;;;1.20;;
77012;SDS011;67260;53.130;17.982;2023-07-28T15:14:06;2.00;;;1.40;;
77012;SDS011;67260;53.130;17.982;2023-07-28T15:16:33;2.10;;;1.30;;
77012;SDS011;67260;53.130;17.982;2023-07-28T15:19:00;2.90;;;1.20;;
77012;SDS011;67260;53.130;17.982;2023-07-28T15:21:31;3.80;;;1.40;;
77012;SDS011;67260;53.130;17.982;2023-07-28T15:24:01;3.80;;;1.70;;
77012;SDS011;67260;53.130;17.982;2023-07-28T15:26:32;2.10;;;1.20;;
77012;SDS011;67260;53.130;17.982;2023-07-28T15:29:05;2.20;;;1.30;;
77012;SDS011;67260;53.130;17.982;2023-07-28T15:31:32;2.10;;;1.30;;